createdAt,value
2019-06-15T00:01:36.188Z,0.30
2019-06-15T00:04:04.364Z,0.30
2019-06-15T00:06:32.948Z,0.30
2019-06-15T00:09:01.420Z,0.30
2019-06-15T00:11:29.797Z,0.30
2019-06-15T00:13:58.096Z,0.30
2019-06-15T00:16:26.109Z,0.40
2019-06-15T00:18:55.001Z,0.30
2019-06-15T00:21:23.563Z,0.40
2019-06-15T00:23:52.014Z,0.30
2019-06-15T00:26:20.310Z,0.30
2019-06-15T00:28:48.923Z,0.30
2019-06-15T00:31:17.371Z,0.40
2019-06-15T00:33:45.724Z,0.60
2019-06-15T00:36:14.369Z,0.50
2019-06-15T00:38:44.808Z,0.40
2019-06-15T00:41:13.441Z,0.67
2019-06-15T00:43:42.368Z,0.67
2019-06-15T00:46:10.836Z,0.90
2019-06-15T00:48:39.070Z,1.43
2019-06-15T00:51:07.385Z,0.87
2019-06-15T00:53:35.559Z,2.30
2019-06-15T00:56:04.872Z,2.67
2019-06-15T00:58:33.417Z,4.17
2019-06-15T01:01:01.599Z,3.30
2019-06-15T01:03:30.087Z,2.20
2019-06-15T01:05:58.801Z,2.30
2019-06-15T01:08:27.695Z,2.77
2019-06-15T01:10:55.989Z,5.03
2019-06-15T01:13:24.141Z,4.67
2019-06-15T01:15:52.244Z,4.43
2019-06-15T01:18:20.725Z,4.30
2019-06-15T01:20:49.175Z,3.53
2019-06-15T01:23:17.363Z,2.90
2019-06-15T01:25:45.427Z,3.43
2019-06-15T01:28:15.027Z,4.03
2019-06-15T01:30:43.461Z,3.90
2019-06-15T01:33:11.347Z,5.20
2019-06-15T01:35:39.916Z,3.23
2019-06-15T01:38:08.579Z,3.57
2019-06-15T01:40:36.900Z,3.87
2019-06-15T01:43:05.399Z,4.50
2019-06-15T01:45:33.735Z,4.50
2019-06-15T01:48:01.943Z,5.30
2019-06-15T01:50:32.006Z,4.70
2019-06-15T01:53:00.377Z,4.70
2019-06-15T01:55:29.440Z,3.80
2019-06-15T01:57:57.362Z,3.60
2019-06-15T02:00:30.310Z,3.03
2019-06-15T02:02:58.606Z,2.37
2019-06-15T02:05:26.807Z,2.33
2019-06-15T02:07:55.081Z,2.40
2019-06-15T02:10:28.528Z,2.10
2019-06-15T02:12:56.822Z,2.30
2019-06-15T02:15:25.206Z,2.43
2019-06-15T02:17:53.794Z,3.07
2019-06-15T02:20:21.967Z,2.97
2019-06-15T02:22:50.396Z,3.17
2019-06-15T02:25:35.367Z,3.83
2019-06-15T02:27:54.628Z,4.27
2019-06-15T02:30:26.620Z,3.87
2019-06-15T02:32:55.632Z,4.27
2019-06-15T02:35:23.984Z,3.33
2019-06-15T02:37:52.895Z,3.47
2019-06-15T02:40:21.958Z,3.03
2019-06-15T02:42:50.062Z,5.97
2019-06-15T02:45:18.290Z,4.40
2019-06-15T02:47:46.458Z,4.23
2019-06-15T02:50:15.441Z,3.57
2019-06-15T02:52:44.244Z,4.37
2019-06-15T02:55:13.486Z,4.57
2019-06-15T02:57:41.427Z,5.20
2019-06-15T03:00:11.534Z,4.80
2019-06-15T03:02:39.536Z,6.40
2019-06-15T03:05:08.057Z,6.80
2019-06-15T03:07:36.389Z,5.50
2019-06-15T03:10:04.771Z,5.90
2019-06-15T03:12:33.261Z,6.37
2019-06-15T03:15:02.001Z,6.13
2019-06-15T03:17:30.413Z,6.97
2019-06-15T03:19:58.762Z,7.30
2019-06-15T03:22:27.463Z,8.63
2019-06-15T03:24:55.779Z,7.50
2019-06-15T03:27:23.819Z,6.47
2019-06-15T03:29:51.866Z,7.33
2019-06-15T03:32:19.821Z,6.73
2019-06-15T03:34:48.173Z,6.67
2019-06-15T03:37:16.306Z,7.00
2019-06-15T03:39:44.583Z,7.10
2019-06-15T03:42:13.238Z,7.37
2019-06-15T03:44:41.554Z,7.40
2019-06-15T03:47:09.700Z,8.23
2019-06-15T03:49:38.020Z,9.37
2019-06-15T03:52:06.405Z,8.97
2019-06-15T03:54:34.341Z,9.70
2019-06-15T03:57:02.231Z,11.40
2019-06-15T03:59:30.147Z,12.20
2019-06-15T04:01:58.101Z,12.07
2019-06-15T04:04:26.077Z,13.97
2019-06-15T04:06:54.363Z,15.57
2019-06-15T04:09:22.604Z,16.83
2019-06-15T04:11:50.669Z,15.77
2019-06-15T04:14:18.946Z,18.83
2019-06-15T04:16:46.857Z,19.23
2019-06-15T04:19:16.040Z,18.10
2019-06-15T04:21:43.954Z,17.00
2019-06-15T04:24:12.113Z,18.73
2019-06-15T04:26:39.986Z,20.07
2019-06-15T04:29:08.643Z,19.93
2019-06-15T04:31:39.883Z,22.20
2019-06-15T04:34:06.817Z,22.57
2019-06-15T04:36:34.866Z,24.67
2019-06-15T04:39:05.141Z,27.40
2019-06-15T04:41:33.471Z,29.00
2019-06-15T04:44:01.518Z,29.03
2019-06-15T04:46:32.001Z,30.60
2019-06-15T04:48:59.349Z,31.20
2019-06-15T04:51:27.489Z,31.30
2019-06-15T04:53:55.547Z,31.23
2019-06-15T04:56:24.961Z,29.57
2019-06-15T04:58:53.972Z,30.67
2019-06-15T05:01:22.125Z,32.87
2019-06-15T05:03:50.897Z,32.70
2019-06-15T05:09:44.367Z,35.27
2019-06-15T05:12:12.578Z,36.70
2019-06-15T05:14:40.620Z,37.27
2019-06-15T05:17:09.119Z,37.37
2019-06-15T05:19:37.059Z,37.73
2019-06-15T05:22:05.595Z,40.70
2019-06-15T05:24:34.070Z,37.53
2019-06-15T05:27:06.356Z,37.90
2019-06-15T05:29:33.768Z,38.43
2019-06-15T05:32:02.390Z,38.67
2019-06-15T05:34:30.374Z,39.98
2019-06-15T05:36:58.684Z,37.30
2019-06-15T05:39:27.704Z,39.47
2019-06-15T05:42:00.859Z,38.63
2019-06-15T05:44:30.685Z,37.20
2019-06-15T05:46:59.024Z,36.70
2019-06-15T05:49:29.471Z,38.40
2019-06-15T05:51:59.334Z,32.30
2019-06-15T05:54:29.900Z,27.03
2019-06-15T05:56:58.923Z,27.03
2019-06-15T05:59:28.087Z,18.90
2019-06-15T06:01:59.530Z,15.53
2019-06-15T06:04:31.808Z,14.07
2019-06-15T06:07:04.227Z,13.30
2019-06-15T06:09:32.404Z,12.27
2019-06-15T06:12:00.581Z,10.78
2019-06-15T06:14:31.488Z,10.70
2019-06-15T06:16:59.656Z,9.00
2019-06-15T06:19:28.044Z,8.05
2019-06-15T06:21:58.350Z,6.00
2019-06-15T06:24:29.714Z,5.80
2019-06-15T06:26:58.204Z,3.73
2019-06-15T06:29:27.684Z,5.70
2019-06-15T06:31:57.597Z,4.20
2019-06-15T06:34:27.557Z,3.90
2019-06-15T06:37:03.762Z,4.70
2019-06-15T06:39:36.947Z,4.43
2019-06-15T06:42:06.445Z,4.47
2019-06-15T06:44:34.909Z,4.70
2019-06-15T06:47:04.644Z,4.13
2019-06-15T06:49:32.846Z,4.47
2019-06-15T06:52:01.285Z,3.80
2019-06-15T06:54:30.868Z,3.93
2019-06-15T06:57:01.881Z,6.10
2019-06-15T06:59:30.206Z,10.90
2019-06-15T07:01:59.225Z,5.50
2019-06-15T07:08:42.350Z,3.63
2019-06-15T07:11:10.418Z,3.57
2019-06-15T07:13:39.101Z,2.87
2019-06-15T07:16:07.518Z,4.60
2019-06-15T07:18:35.487Z,4.67
2019-06-15T07:21:04.083Z,4.00
2019-06-15T07:23:32.476Z,5.10
2019-06-15T07:26:00.486Z,5.47
2019-06-15T07:28:28.825Z,5.60
2019-06-15T07:30:56.916Z,5.33
2019-06-15T07:33:25.097Z,6.50
2019-06-15T07:35:53.034Z,6.13
2019-06-15T07:38:21.020Z,6.80
2019-06-15T07:40:50.076Z,6.33
2019-06-15T07:43:18.359Z,7.30
2019-06-15T07:45:46.868Z,7.67
2019-06-15T07:48:15.225Z,8.07
2019-06-15T07:50:43.514Z,7.93
2019-06-15T07:53:11.438Z,8.50
2019-06-15T07:55:39.302Z,8.37
2019-06-15T07:58:23.332Z,8.27
2019-06-15T08:00:38.246Z,8.27
2019-06-15T08:03:07.026Z,8.97
2019-06-15T08:05:34.965Z,8.60
2019-06-15T08:08:02.878Z,9.67
2019-06-15T08:10:30.795Z,9.10
2019-06-15T08:12:58.842Z,9.03
2019-06-15T08:15:26.940Z,8.77
2019-06-15T08:17:55.431Z,9.30
2019-06-15T08:20:28.309Z,11.63
2019-06-15T08:22:56.486Z,9.97
2019-06-15T08:25:24.788Z,9.83
2019-06-15T08:27:52.858Z,9.83
2019-06-15T08:30:28.096Z,10.37
2019-06-15T08:32:55.969Z,9.63
2019-06-15T08:35:24.322Z,9.37
2019-06-15T08:37:52.494Z,9.77
2019-06-15T08:40:22.541Z,8.90
2019-06-15T08:42:50.893Z,9.07
2019-06-15T08:45:19.133Z,9.17
2019-06-15T08:47:50.239Z,7.90
2019-06-15T08:50:19.139Z,8.10
2019-06-15T08:52:47.148Z,8.83
2019-06-15T08:55:15.215Z,8.70
2019-06-15T08:57:44.789Z,9.50
2019-06-15T09:00:12.864Z,9.63
2019-06-15T09:02:40.901Z,8.50
2019-06-15T09:05:09.666Z,7.80
2019-06-15T09:07:37.749Z,8.35
2019-06-15T09:10:06.889Z,7.50
2019-06-15T09:12:35.193Z,7.27
2019-06-15T09:15:04.286Z,7.53
2019-06-15T09:17:32.210Z,8.13
2019-06-15T09:20:00.405Z,8.50
2019-06-15T09:22:28.281Z,7.67
2019-06-15T09:24:57.902Z,7.57
2019-06-15T09:27:25.835Z,7.33
2019-06-15T09:29:53.781Z,8.43
2019-06-15T09:32:22.582Z,7.50
2019-06-15T09:34:50.630Z,7.23
2019-06-15T09:37:18.681Z,8.90
2019-06-15T09:39:47.376Z,7.00
2019-06-15T09:42:15.362Z,5.70
2019-06-15T09:44:43.748Z,4.40
2019-06-15T09:47:11.849Z,4.53
2019-06-15T09:49:39.696Z,3.53
2019-06-15T09:52:07.572Z,2.80
2019-06-15T09:54:35.554Z,1.98
2019-06-15T09:57:03.738Z,1.85
2019-06-15T09:59:31.675Z,1.85
2019-06-15T10:02:00.312Z,1.83
2019-06-15T10:04:28.481Z,2.55
2019-06-15T10:06:56.457Z,2.73
2019-06-15T10:09:24.494Z,3.10
2019-06-15T10:11:52.447Z,2.45
2019-06-15T10:14:20.591Z,2.40
2019-06-15T10:16:48.523Z,3.13
2019-06-15T10:19:16.787Z,3.83
2019-06-15T10:21:44.775Z,3.77
2019-06-15T10:24:13.058Z,3.70
2019-06-15T10:26:41.132Z,3.47
2019-06-15T10:29:09.347Z,4.05
2019-06-15T10:31:37.838Z,4.80
2019-06-15T10:34:06.075Z,4.37
2019-06-15T10:36:34.145Z,3.37
2019-06-15T10:39:03.261Z,3.98
2019-06-15T10:41:31.640Z,3.35
2019-06-15T10:43:59.889Z,3.33
2019-06-15T10:46:27.861Z,3.20
2019-06-15T10:48:56.131Z,2.87
2019-06-15T10:51:24.778Z,3.47
2019-06-15T10:53:53.095Z,3.22
2019-06-15T10:56:21.306Z,3.45
2019-06-15T10:58:49.828Z,3.08
2019-06-15T11:01:18.342Z,2.98
2019-06-15T11:03:46.854Z,2.35
2019-06-15T11:06:16.014Z,2.75
2019-06-15T11:08:44.306Z,2.30
2019-06-15T11:11:21.652Z,2.52
2019-06-15T11:13:49.359Z,2.52
2019-06-15T11:16:18.484Z,3.40
2019-06-15T11:18:48.032Z,1.82
2019-06-15T11:21:16.650Z,1.10
2019-06-15T11:23:44.992Z,0.80
2019-06-15T11:26:13.512Z,0.40
2019-06-15T11:28:41.894Z,0.70
2019-06-15T11:31:10.344Z,0.80
2019-06-15T11:33:38.716Z,0.75
2019-06-15T11:36:07.058Z,1.00
2019-06-15T11:38:35.446Z,1.30
2019-06-15T11:41:04.357Z,1.60
2019-06-15T11:43:33.159Z,1.20
2019-06-15T11:46:01.448Z,0.93
2019-06-15T11:48:29.930Z,0.90
2019-06-15T11:50:57.914Z,1.12
2019-06-15T11:53:26.538Z,1.65
2019-06-15T11:55:55.157Z,0.90
2019-06-15T11:58:23.771Z,1.20
2019-06-15T12:00:52.000Z,1.15
2019-06-15T12:03:20.238Z,1.25
2019-06-15T12:05:48.882Z,1.37
2019-06-15T12:08:17.037Z,1.57
2019-06-15T12:10:45.499Z,1.05
2019-06-15T12:13:13.515Z,0.82
2019-06-15T12:15:42.274Z,0.95
2019-06-15T12:18:10.551Z,1.07
2019-06-15T12:20:39.174Z,1.27
2019-06-15T12:23:07.591Z,0.90
2019-06-15T12:25:36.038Z,1.05
2019-06-15T12:28:04.273Z,0.95
2019-06-15T12:30:48.858Z,1.10
2019-06-15T12:33:12.128Z,1.17
2019-06-15T12:35:40.916Z,1.50
2019-06-15T12:38:09.403Z,1.30
2019-06-15T12:40:38.195Z,1.47
2019-06-15T12:43:06.631Z,1.95
2019-06-15T12:45:34.702Z,1.45
2019-06-15T12:48:02.795Z,1.05
2019-06-15T12:50:30.699Z,1.60
2019-06-15T12:52:59.266Z,1.40
2019-06-15T12:55:27.111Z,1.17
2019-06-15T12:57:55.417Z,1.20
2019-06-15T13:00:29.313Z,1.85
2019-06-15T13:02:59.340Z,1.42
2019-06-15T13:05:27.464Z,1.82
2019-06-15T13:07:55.634Z,1.67
2019-06-15T13:10:24.345Z,1.95
2019-06-15T13:12:52.861Z,1.37
2019-06-15T13:15:22.640Z,1.10
2019-06-15T13:17:51.145Z,1.40
2019-06-15T13:20:21.044Z,1.62
2019-06-15T13:22:54.316Z,1.50
2019-06-15T13:25:23.491Z,1.70
2019-06-15T13:27:53.125Z,1.80
2019-06-15T13:30:22.512Z,1.72
2019-06-15T13:32:51.337Z,1.70
2019-06-15T13:35:20.471Z,1.67
2019-06-15T13:37:48.948Z,5.47
2019-06-15T13:40:17.313Z,8.35
2019-06-15T13:42:47.775Z,7.28
2019-06-15T13:45:17.619Z,7.65
2019-06-15T13:50:31.250Z,6.78
2019-06-15T13:52:58.902Z,4.05
2019-06-15T13:55:26.449Z,2.83
2019-06-15T13:57:54.067Z,2.83
2019-06-15T14:00:22.242Z,2.00
2019-06-15T14:05:32.867Z,1.50
2019-06-15T14:08:00.687Z,1.27
2019-06-15T14:10:28.334Z,1.20
2019-06-15T14:12:56.297Z,0.80
2019-06-15T14:15:24.164Z,0.85
2019-06-15T14:17:51.938Z,0.70
2019-06-15T14:20:20.488Z,0.50
2019-06-15T14:22:48.115Z,0.40
2019-06-15T14:25:16.198Z,0.70
2019-06-15T14:27:44.166Z,1.10
2019-06-15T14:30:11.916Z,0.75
2019-06-15T14:32:39.926Z,0.90
2019-06-15T14:35:08.139Z,0.68
2019-06-15T14:37:36.092Z,1.00
2019-06-15T14:40:04.899Z,1.92
2019-06-15T14:42:32.549Z,1.15
2019-06-15T14:45:00.253Z,1.30
2019-06-15T14:47:28.818Z,2.55
2019-06-15T14:49:56.651Z,1.50
2019-06-15T14:52:24.327Z,2.03
2019-06-15T14:57:41.171Z,3.40
2019-06-15T15:00:16.808Z,1.33
2019-06-15T15:02:46.872Z,1.30
2019-06-15T15:05:17.649Z,0.73
2019-06-15T15:07:46.955Z,0.80
2019-06-15T15:10:16.352Z,0.77
2019-06-15T15:12:46.098Z,0.50
2019-06-15T15:15:13.830Z,0.40
2019-06-15T15:17:42.618Z,0.53
2019-06-15T15:20:10.712Z,0.30
2019-06-15T15:22:38.975Z,0.30
2019-06-15T15:25:07.916Z,0.20
2019-06-15T15:27:37.401Z,0.20
2019-06-15T15:30:06.261Z,0.20
2019-06-15T15:32:37.100Z,0.30
2019-06-15T15:35:06.575Z,0.30
2019-06-15T15:37:36.936Z,0.20
2019-06-15T15:40:11.524Z,0.42
2019-06-15T15:42:39.546Z,0.20
2019-06-15T15:45:08.782Z,0.20
2019-06-15T15:47:37.577Z,0.30
2019-06-15T15:50:06.397Z,0.20
2019-06-15T15:52:37.171Z,0.20
2019-06-15T15:55:06.505Z,0.20
2019-06-15T15:57:36.338Z,0.20
2019-06-15T16:00:07.340Z,0.40
2019-06-15T16:02:52.066Z,0.20
2019-06-15T16:05:10.337Z,0.30
2019-06-15T16:07:42.447Z,0.20
2019-06-15T16:10:10.294Z,0.20
2019-06-15T16:12:38.037Z,0.20
2019-06-15T16:15:07.298Z,0.13
2019-06-15T16:17:37.288Z,0.20
2019-06-15T16:20:06.764Z,0.30
2019-06-15T16:22:36.856Z,0.40
2019-06-15T16:25:03.868Z,0.17
2019-06-15T16:27:31.458Z,0.30
2019-06-15T16:29:59.088Z,0.10
2019-06-15T16:32:26.674Z,0.20
2019-06-15T16:34:54.307Z,0.20
2019-06-15T16:37:21.877Z,0.20
2019-06-15T16:39:49.585Z,0.10
2019-06-15T16:42:17.489Z,0.20
2019-06-15T16:44:46.902Z,0.20
2019-06-15T16:47:16.595Z,0.25
2019-06-15T16:49:46.376Z,0.30
2019-06-15T16:52:16.287Z,0.20
2019-06-15T16:54:46.814Z,0.20
2019-06-15T16:57:15.959Z,0.40
2019-06-15T16:59:42.925Z,0.33
2019-06-15T17:02:10.549Z,0.30
2019-06-15T17:04:38.132Z,0.28
2019-06-15T17:07:07.142Z,0.30
2019-06-15T17:09:36.265Z,0.30
2019-06-15T17:12:12.890Z,0.45
2019-06-15T17:14:41.335Z,0.72
2019-06-15T17:17:09.928Z,0.30
2019-06-15T17:19:38.108Z,0.40
2019-06-15T17:22:20.430Z,0.40
2019-06-15T17:24:45.889Z,0.30
2019-06-15T17:27:37.519Z,0.25
2019-06-15T17:30:17.056Z,0.30
2019-06-15T17:32:48.545Z,0.42
2019-06-15T17:35:20.627Z,0.40
2019-06-15T17:37:56.395Z,0.30
2019-06-15T17:51:07.143Z,0.30
2019-06-15T17:54:24.024Z,0.40
2019-06-15T17:57:15.870Z,0.78
2019-06-15T18:00:12.626Z,0.40
2019-06-15T18:03:02.078Z,0.85
2019-06-15T18:06:09.634Z,0.40
2019-06-15T18:08:58.474Z,0.40
2019-06-15T18:12:02.471Z,0.40
2019-06-15T18:14:33.032Z,0.45
2019-06-15T18:19:42.059Z,0.50
2019-06-15T18:22:09.940Z,0.90
2019-06-15T18:24:37.587Z,0.80
2019-06-15T18:27:07.095Z,0.80
2019-06-15T18:29:36.699Z,1.20
2019-06-15T18:32:07.879Z,1.17
2019-06-15T18:34:36.842Z,1.07
2019-06-15T18:37:04.687Z,0.90
2019-06-15T18:39:32.983Z,1.00
2019-06-15T18:42:00.759Z,0.95
2019-06-15T18:44:28.558Z,0.80
2019-06-15T18:46:56.540Z,1.00
2019-06-15T18:49:26.633Z,0.90
2019-06-15T18:51:56.573Z,1.07
2019-06-15T18:54:23.535Z,1.35
2019-06-15T18:56:51.260Z,1.52
2019-06-15T18:59:19.357Z,1.02
2019-06-15T19:01:47.324Z,1.45
2019-06-15T19:04:24.591Z,0.90
2019-06-15T19:06:46.744Z,1.10
2019-06-15T19:09:16.274Z,0.90
2019-06-15T19:11:44.103Z,1.10
2019-06-15T19:14:11.875Z,0.80
2019-06-15T19:16:39.907Z,1.17
2019-06-15T19:19:09.240Z,1.10
2019-06-15T19:21:37.155Z,1.67
2019-06-15T19:24:07.086Z,2.10
2019-06-15T19:26:37.455Z,1.55
2019-06-15T19:29:06.371Z,1.32
2019-06-15T19:31:33.618Z,1.00
2019-06-15T19:34:01.837Z,1.60
2019-06-15T19:36:29.500Z,2.40
2019-06-15T19:38:57.315Z,2.12
2019-06-15T19:41:26.651Z,2.12
2019-06-15T19:43:56.954Z,1.40
2019-06-15T19:46:26.067Z,1.60
2019-06-15T19:48:55.940Z,1.35
2019-06-15T19:51:23.033Z,1.97
2019-06-15T19:53:50.628Z,2.70
2019-06-15T19:56:18.205Z,2.60
2019-06-15T19:58:46.223Z,2.22
2019-06-15T20:01:13.816Z,2.37
2019-06-15T20:03:41.468Z,3.07
2019-06-15T20:06:09.035Z,2.40
2019-06-15T20:08:36.835Z,2.67
2019-06-15T20:11:06.974Z,2.80
2019-06-15T20:13:36.863Z,3.02
2019-06-15T20:16:05.272Z,1.72
2019-06-15T20:18:32.981Z,1.83
2019-06-15T20:21:00.602Z,1.50
2019-06-15T20:23:28.861Z,2.37
2019-06-15T20:25:58.514Z,2.80
2019-06-15T20:28:27.286Z,3.83
2019-06-15T20:30:57.098Z,4.00
2019-06-15T20:33:26.381Z,3.97
2019-06-15T20:35:54.270Z,3.70
2019-06-15T20:38:21.830Z,4.27
2019-06-15T20:40:49.423Z,4.37
2019-06-15T20:43:18.954Z,5.00
2019-06-15T20:45:47.131Z,4.33
2019-06-15T20:48:14.720Z,4.50
2019-06-15T20:50:42.571Z,4.93
2019-06-15T20:53:10.483Z,4.97
2019-06-15T20:55:38.058Z,5.33
2019-06-15T21:01:03.404Z,7.20
2019-06-15T21:03:31.039Z,7.65
2019-06-15T21:05:58.669Z,7.30
2019-06-15T21:08:26.749Z,8.50
2019-06-15T21:10:56.432Z,8.60
2019-06-15T21:13:26.226Z,8.28
2019-06-15T21:15:53.536Z,9.50
2019-06-15T21:18:21.518Z,9.35
2019-06-15T21:20:49.164Z,10.03
2019-06-15T21:23:16.896Z,10.40
2019-06-15T21:25:46.777Z,9.40
2019-06-15T21:28:16.683Z,10.00
2019-06-15T21:30:43.670Z,11.33
2019-06-15T21:33:11.389Z,13.07
2019-06-15T21:35:49.028Z,16.10
2019-06-15T21:38:09.155Z,16.17
2019-06-15T21:40:37.029Z,18.53
2019-06-15T21:43:06.802Z,19.83
2019-06-15T21:45:36.268Z,23.33
2019-06-15T21:48:06.538Z,25.57
2019-06-15T21:50:33.416Z,27.97
2019-06-15T21:53:01.383Z,26.53
2019-06-15T21:55:29.050Z,28.80
2019-06-15T21:57:56.706Z,30.10
2019-06-15T22:00:39.781Z,30.67
2019-06-15T22:03:07.476Z,31.07
2019-06-15T22:05:36.842Z,32.43
2019-06-15T22:08:21.633Z,34.30
2019-06-15T22:10:58.000Z,36.27
2019-06-15T22:13:33.464Z,37.77
2019-06-15T22:16:09.114Z,43.43
2019-06-15T22:18:47.200Z,44.33
2019-06-15T22:21:21.113Z,42.83
2019-06-15T22:23:55.937Z,45.07
2019-06-15T22:26:31.363Z,44.37
2019-06-15T22:29:16.587Z,43.23
2019-06-15T22:32:00.704Z,43.00
2019-06-15T22:34:36.445Z,45.27
2019-06-15T22:37:13.082Z,50.47
2019-06-15T22:39:58.104Z,55.37
2019-06-15T22:42:32.229Z,52.73
2019-06-15T22:45:10.906Z,54.83
2019-06-15T22:47:46.871Z,57.83
2019-06-15T22:50:21.039Z,60.07
2019-06-15T22:52:56.480Z,59.67
2019-06-15T22:55:33.026Z,80.15
2019-06-15T22:58:07.122Z,68.90
2019-06-15T23:00:41.378Z,65.13
2019-06-15T23:03:28.736Z,63.77
2019-06-15T23:06:03.157Z,66.23
2019-06-15T23:08:38.742Z,70.33
2019-06-15T23:11:17.435Z,72.00
2019-06-15T23:13:57.185Z,72.43
2019-06-15T23:16:36.655Z,68.33
2019-06-15T23:19:10.824Z,67.67
2019-06-15T23:21:46.314Z,58.53
2019-06-15T23:24:21.500Z,58.57
2019-06-15T23:26:57.078Z,50.57
2019-06-15T23:29:40.832Z,42.73
2019-06-15T23:32:20.779Z,39.53
2019-06-15T23:34:56.517Z,36.90
2019-06-15T23:37:30.820Z,35.70
2019-06-15T23:40:26.965Z,32.97
2019-06-15T23:43:02.425Z,30.47
2019-06-15T23:45:40.020Z,28.40
2019-06-15T23:48:16.100Z,27.43
2019-06-15T23:50:52.333Z,24.83
2019-06-15T23:53:27.874Z,24.13
2019-06-15T23:56:07.274Z,22.77
2019-06-15T23:58:42.765Z,23.10
